sensor_id;sensor_type;location;lat;lon;timestamp;pressure;altitude;pressure_sealevel;temperature;humidity
64827;BME280;51265;53.972;12.286;2022-12-10T00:01:42;100143.69;;;-2.59;100.00
64827;BME280;51265;53.972;12.286;2022-12-10T00:04:09;100152.22;;;-2.62;100.00
64827;BME280;51265;53.972;12.286;2022-12-10T00:06:37;100149.31;;;-2.60;100.00
64827;BME280;51265;53.972;12.286;2022-12-10T00:09:05;100156.72;;;-2.56;100.00
64827;BME280;51265;53.972;12.286;2022-12-10T00:11:32;100147.59;;;-2.55;100.00
64827;BME280;51265;53.972;12.286;2022-12-10T00:13:58;100149.69;;;-2.57;100.00
64827;BME280;51265;53.972;12.286;2022-12-10T00:16:26;100158.81;;;-2.58;100.00
64827;BME280;51265;53.972;12.286;2022-12-10T00:18:52;100151.19;;;-2.61;100.00
64827;BME280;51265;53.972;12.286;2022-12-10T00:21:21;100151.03;;;-2.66;100.00
64827;BME280;51265;53.972;12.286;2022-12-10T00:23:48;100151.84;;;-2.65;100.00
64827;BME280;51265;53.972;12.286;2022-12-10T00:26:16;100153.88;;;-2.61;100.00
64827;BME280;51265;53.972;12.286;2022-12-10T00:28:43;100157.00;;;-2.64;100.00
64827;BME280;51265;53.972;12.286;2022-12-10T00:31:12;100147.28;;;-2.65;100.00
64827;BME280;51265;53.972;12.286;2022-12-10T00:33:39;100145.50;;;-2.71;100.00
64827;BME280;51265;53.972;12.286;2022-12-10T00:36:11;100148.69;;;-2.81;100.00
64827;BME280;51265;53.972;12.286;2022-12-10T00:38:39;100149.06;;;-2.77;100.00
64827;BME280;51265;53.972;12.286;2022-12-10T00:41:05;100154.78;;;-2.67;100.00
64827;BME280;51265;53.972;12.286;2022-12-10T00:43:33;100163.59;;;-2.60;100.00
64827;BME280;51265;53.972;12.286;2022-12-10T00:46:00;100158.50;;;-2.68;100.00
64827;BME280;51265;53.972;12.286;2022-12-10T00:48:32;100165.56;;;-2.67;100.00
64827;BME280;51265;53.972;12.286;2022-12-10T00:53:27;100156.66;;;-2.67;100.00
64827;BME280;51265;53.972;12.286;2022-12-10T00:55:54;100162.25;;;-2.69;100.00
64827;BME280;51265;53.972;12.286;2022-12-10T00:58:21;100149.69;;;-2.75;100.00
64827;BME280;51265;53.972;12.286;2022-12-10T01:00:47;100149.97;;;-2.83;100.00
64827;BME280;51265;53.972;12.286;2022-12-10T01:03:14;100155.66;;;-2.73;100.00
64827;BME280;51265;53.972;12.286;2022-12-10T01:05:41;100152.38;;;-2.75;100.00
64827;BME280;51265;53.972;12.286;2022-12-10T01:08:07;100151.91;;;-2.72;100.00
64827;BME280;51265;53.972;12.286;2022-12-10T01:10:33;100147.56;;;-2.73;100.00
64827;BME280;51265;53.972;12.286;2022-12-10T01:13:00;100152.13;;;-2.73;100.00
64827;BME280;51265;53.972;12.286;2022-12-10T01:15:26;100157.69;;;-2.68;100.00
64827;BME280;51265;53.972;12.286;2022-12-10T01:17:52;100153.19;;;-2.74;100.00
64827;BME280;51265;53.972;12.286;2022-12-10T01:20:18;100158.97;;;-2.71;100.00
64827;BME280;51265;53.972;12.286;2022-12-10T01:22:45;100176.66;;;-2.57;100.00
64827;BME280;51265;53.972;12.286;2022-12-10T01:25:11;100157.91;;;-2.70;100.00
64827;BME280;51265;53.972;12.286;2022-12-10T01:27:40;100156.09;;;-2.76;100.00
64827;BME280;51265;53.972;12.286;2022-12-10T01:30:07;100161.81;;;-2.66;100.00
64827;BME280;51265;53.972;12.286;2022-12-10T01:32:36;100164.91;;;-2.62;100.00
64827;BME280;51265;53.972;12.286;2022-12-10T01:35:02;100160.00;;;-2.72;100.00
64827;BME280;51265;53.972;12.286;2022-12-10T01:37:28;100154.88;;;-2.80;100.00
64827;BME280;51265;53.972;12.286;2022-12-10T01:39:54;100171.84;;;-2.73;100.00
64827;BME280;51265;53.972;12.286;2022-12-10T01:42:20;100168.09;;;-2.72;100.00
64827;BME280;51265;53.972;12.286;2022-12-10T01:47:15;100159.97;;;-2.90;100.00
64827;BME280;51265;53.972;12.286;2022-12-10T01:49:41;100154.72;;;-3.04;100.00
64827;BME280;51265;53.972;12.286;2022-12-10T01:52:11;100151.25;;;-3.11;100.00
64827;BME280;51265;53.972;12.286;2022-12-10T01:54:42;100158.50;;;-3.11;100.00
64827;BME280;51265;53.972;12.286;2022-12-10T01:57:15;100158.56;;;-3.18;100.00
64827;BME280;51265;53.972;12.286;2022-12-10T01:59:43;100157.72;;;-3.18;100.00
64827;BME280;51265;53.972;12.286;2022-12-10T02:02:38;100159.59;;;-3.19;100.00
64827;BME280;51265;53.972;12.286;2022-12-10T02:13:52;100168.84;;;-2.83;100.00
64827;BME280;51265;53.972;12.286;2022-12-10T02:16:33;100169.75;;;-2.71;100.00
64827;BME280;51265;53.972;12.286;2022-12-10T02:21:46;100161.75;;;-3.03;100.00
64827;BME280;51265;53.972;12.286;2022-12-10T02:24:16;100148.63;;;-3.17;100.00
64827;BME280;51265;53.972;12.286;2022-12-10T02:27:46;100149.09;;;-3.27;100.00
64827;BME280;51265;53.972;12.286;2022-12-10T02:29:53;100152.06;;;-3.35;100.00
64827;BME280;51265;53.972;12.286;2022-12-10T02:32:23;100140.69;;;-3.62;100.00
64827;BME280;51265;53.972;12.286;2022-12-10T02:34:54;100136.22;;;-3.75;100.00
64827;BME280;51265;53.972;12.286;2022-12-10T02:37:36;100142.00;;;-3.71;100.00
64827;BME280;51265;53.972;12.286;2022-12-10T02:40:08;100144.72;;;-3.78;100.00
64827;BME280;51265;53.972;12.286;2022-12-10T02:42:42;100147.81;;;-3.74;100.00
64827;BME280;51265;53.972;12.286;2022-12-10T02:45:10;100158.72;;;-3.63;100.00
64827;BME280;51265;53.972;12.286;2022-12-10T02:47:38;100165.47;;;-3.54;100.00
64827;BME280;51265;53.972;12.286;2022-12-10T02:50:06;100169.16;;;-3.48;100.00
64827;BME280;51265;53.972;12.286;2022-12-10T02:52:33;100173.69;;;-3.42;100.00
64827;BME280;51265;53.972;12.286;2022-12-10T02:54:59;100175.44;;;-3.29;100.00
64827;BME280;51265;53.972;12.286;2022-12-10T03:00:16;100177.25;;;-3.23;100.00
64827;BME280;51265;53.972;12.286;2022-12-10T03:06:15;100187.06;;;-3.04;100.00
64827;BME280;51265;53.972;12.286;2022-12-10T03:09:02;100179.25;;;-3.12;100.00
64827;BME280;51265;53.972;12.286;2022-12-10T03:11:31;100185.06;;;-3.15;100.00
64827;BME280;51265;53.972;12.286;2022-12-10T03:14:28;100182.31;;;-3.08;100.00
64827;BME280;51265;53.972;12.286;2022-12-10T03:16:58;100186.50;;;-2.87;100.00
64827;BME280;51265;53.972;12.286;2022-12-10T03:19:35;100190.81;;;-2.86;100.00
64827;BME280;51265;53.972;12.286;2022-12-10T03:22:04;100178.47;;;-2.94;100.00
64827;BME280;51265;53.972;12.286;2022-12-10T03:24:32;100178.69;;;-2.95;100.00
64827;BME280;51265;53.972;12.286;2022-12-10T03:26:59;100167.41;;;-3.11;100.00
64827;BME280;51265;53.972;12.286;2022-12-10T03:29:33;100171.66;;;-2.96;100.00
64827;BME280;51265;53.972;12.286;2022-12-10T03:32:01;100176.28;;;-3.04;100.00
64827;BME280;51265;53.972;12.286;2022-12-10T03:34:28;100165.66;;;-2.98;100.00
64827;BME280;51265;53.972;12.286;2022-12-10T03:36:54;100157.56;;;-2.98;100.00
64827;BME280;51265;53.972;12.286;2022-12-10T03:39:21;100173.16;;;-3.01;100.00
64827;BME280;51265;53.972;12.286;2022-12-10T03:41:47;100170.75;;;-2.90;100.00
64827;BME280;51265;53.972;12.286;2022-12-10T03:44:13;100175.31;;;-2.91;100.00
64827;BME280;51265;53.972;12.286;2022-12-10T03:46:39;100158.19;;;-2.96;100.00
64827;BME280;51265;53.972;12.286;2022-12-10T03:49:05;100153.50;;;-3.08;100.00
64827;BME280;51265;53.972;12.286;2022-12-10T03:51:31;100160.63;;;-3.13;100.00
64827;BME280;51265;53.972;12.286;2022-12-10T03:53:57;100155.28;;;-3.20;100.00
64827;BME280;51265;53.972;12.286;2022-12-10T03:56:23;100160.69;;;-3.27;100.00
64827;BME280;51265;53.972;12.286;2022-12-10T03:58:49;100156.59;;;-3.29;100.00
64827;BME280;51265;53.972;12.286;2022-12-10T04:01:15;100168.91;;;-3.15;100.00
64827;BME280;51265;53.972;12.286;2022-12-10T04:03:42;100167.28;;;-3.22;100.00
64827;BME280;51265;53.972;12.286;2022-12-10T04:06:14;100167.78;;;-3.32;100.00
64827;BME280;51265;53.972;12.286;2022-12-10T04:08:41;100174.97;;;-3.26;100.00
64827;BME280;51265;53.972;12.286;2022-12-10T04:11:09;100175.59;;;-3.24;100.00
64827;BME280;51265;53.972;12.286;2022-12-10T04:13:37;100168.56;;;-3.25;100.00
64827;BME280;51265;53.972;12.286;2022-12-10T04:16:23;100175.59;;;-3.24;100.00
64827;BME280;51265;53.972;12.286;2022-12-10T04:19:00;100168.97;;;-3.21;100.00
64827;BME280;51265;53.972;12.286;2022-12-10T04:21:27;100177.81;;;-3.14;100.00
64827;BME280;51265;53.972;12.286;2022-12-10T04:24:13;100188.69;;;-3.03;100.00
64827;BME280;51265;53.972;12.286;2022-12-10T04:27:02;100176.72;;;-3.07;100.00
64827;BME280;51265;53.972;12.286;2022-12-10T04:29:30;100182.72;;;-3.05;100.00
64827;BME280;51265;53.972;12.286;2022-12-10T04:31:57;100178.81;;;-3.09;100.00
64827;BME280;51265;53.972;12.286;2022-12-10T04:34:24;100167.09;;;-3.21;100.00
64827;BME280;51265;53.972;12.286;2022-12-10T04:36:51;100178.03;;;-3.16;100.00
64827;BME280;51265;53.972;12.286;2022-12-10T04:39:17;100183.03;;;-3.19;100.00
64827;BME280;51265;53.972;12.286;2022-12-10T04:41:45;100181.31;;;-3.14;100.00
64827;BME280;51265;53.972;12.286;2022-12-10T04:44:12;100175.06;;;-3.08;100.00
64827;BME280;51265;53.972;12.286;2022-12-10T04:46:38;100171.00;;;-3.17;100.00
64827;BME280;51265;53.972;12.286;2022-12-10T04:49:05;100179.25;;;-3.12;100.00
64827;BME280;51265;53.972;12.286;2022-12-10T04:51:31;100178.19;;;-3.11;100.00
64827;BME280;51265;53.972;12.286;2022-12-10T04:53:58;100166.19;;;-3.15;100.00
64827;BME280;51265;53.972;12.286;2022-12-10T04:56:24;100165.66;;;-3.23;100.00
64827;BME280;51265;53.972;12.286;2022-12-10T04:58:50;100170.22;;;-3.24;100.00
64827;BME280;51265;53.972;12.286;2022-12-10T05:01:16;100170.53;;;-3.14;100.00
64827;BME280;51265;53.972;12.286;2022-12-10T05:03:45;100173.84;;;-3.12;100.00
64827;BME280;51265;53.972;12.286;2022-12-10T05:06:14;100170.53;;;-3.14;100.00
64827;BME280;51265;53.972;12.286;2022-12-10T05:08:40;100166.09;;;-3.27;100.00
64827;BME280;51265;53.972;12.286;2022-12-10T05:11:09;100169.00;;;-3.28;100.00
64827;BME280;51265;53.972;12.286;2022-12-10T05:13:37;100163.66;;;-3.35;100.00
64827;BME280;51265;53.972;12.286;2022-12-10T05:16:04;100160.41;;;-3.43;100.00
64827;BME280;51265;53.972;12.286;2022-12-10T05:18:31;100169.44;;;-3.31;100.00
64827;BME280;51265;53.972;12.286;2022-12-10T05:21:01;100167.84;;;-3.39;100.00
64827;BME280;51265;53.972;12.286;2022-12-10T05:23:28;100165.38;;;-3.40;100.00
64827;BME280;51265;53.972;12.286;2022-12-10T05:28:24;100166.19;;;-3.40;100.00
64827;BME280;51265;53.972;12.286;2022-12-10T05:30:50;100179.00;;;-3.35;100.00
64827;BME280;51265;53.972;12.286;2022-12-10T05:33:18;100179.47;;;-3.38;100.00
64827;BME280;51265;53.972;12.286;2022-12-10T05:36:01;100182.34;;;-3.40;100.00
64827;BME280;51265;53.972;12.286;2022-12-10T05:38:29;100167.50;;;-3.49;100.00
64827;BME280;51265;53.972;12.286;2022-12-10T05:40:55;100181.78;;;-3.48;100.00
64827;BME280;51265;53.972;12.286;2022-12-10T05:43:21;100180.75;;;-3.47;100.00
64827;BME280;51265;53.972;12.286;2022-12-10T05:45:47;100177.06;;;-3.53;100.00
64827;BME280;51265;53.972;12.286;2022-12-10T05:48:15;100176.50;;;-3.62;100.00
64827;BME280;51265;53.972;12.286;2022-12-10T05:50:42;100179.16;;;-3.55;100.00
64827;BME280;51265;53.972;12.286;2022-12-10T05:53:08;100189.84;;;-3.42;100.00
64827;BME280;51265;53.972;12.286;2022-12-10T05:55:34;100184.47;;;-3.48;100.00
64827;BME280;51265;53.972;12.286;2022-12-10T05:58:00;100164.19;;;-3.83;100.00
64827;BME280;51265;53.972;12.286;2022-12-10T06:00:27;100160.38;;;-4.00;100.00
64827;BME280;51265;53.972;12.286;2022-12-10T06:02:54;100174.38;;;-3.91;100.00
64827;BME280;51265;53.972;12.286;2022-12-10T06:05:21;100178.47;;;-3.82;100.00
64827;BME280;51265;53.972;12.286;2022-12-10T06:07:47;100179.69;;;-3.78;100.00
64827;BME280;51265;53.972;12.286;2022-12-10T06:10:13;100177.63;;;-3.76;100.00
64827;BME280;51265;53.972;12.286;2022-12-10T06:12:39;100191.97;;;-3.51;100.00
64827;BME280;51265;53.972;12.286;2022-12-10T06:15:06;100189.47;;;-3.52;100.00
64827;BME280;51265;53.972;12.286;2022-12-10T06:17:32;100188.25;;;-3.56;100.00
64827;BME280;51265;53.972;12.286;2022-12-10T06:19:58;100194.19;;;-3.47;100.00
64827;BME280;51265;53.972;12.286;2022-12-10T06:22:24;100194.66;;;-3.51;100.00
64827;BME280;51265;53.972;12.286;2022-12-10T06:24:51;100180.19;;;-3.56;100.00
64827;BME280;51265;53.972;12.286;2022-12-10T06:27:17;100194.13;;;-3.66;100.00
64827;BME280;51265;53.972;12.286;2022-12-10T06:29:44;100189.34;;;-3.64;100.00
64827;BME280;51265;53.972;12.286;2022-12-10T06:32:10;100194.91;;;-3.59;100.00
64827;BME280;51265;53.972;12.286;2022-12-10T06:34:36;100192.91;;;-3.70;100.00
64827;BME280;51265;53.972;12.286;2022-12-10T06:37:02;100185.91;;;-3.78;100.00
64827;BME280;51265;53.972;12.286;2022-12-10T06:39:28;100196.41;;;-3.69;100.00
64827;BME280;51265;53.972;12.286;2022-12-10T06:41:54;100192.91;;;-3.70;100.00
64827;BME280;51265;53.972;12.286;2022-12-10T06:44:20;100202.03;;;-3.71;100.00
64827;BME280;51265;53.972;12.286;2022-12-10T06:46:46;100201.16;;;-3.65;100.00
64827;BME280;51265;53.972;12.286;2022-12-10T06:49:12;100202.38;;;-3.61;100.00
64827;BME280;51265;53.972;12.286;2022-12-10T06:51:38;100191.25;;;-3.71;100.00
64827;BME280;51265;53.972;12.286;2022-12-10T06:54:04;100195.75;;;-3.65;100.00
64827;BME280;51265;53.972;12.286;2022-12-10T06:56:30;100186.63;;;-3.64;100.00
64827;BME280;51265;53.972;12.286;2022-12-10T06:58:56;100190.81;;;-3.68;100.00
64827;BME280;51265;53.972;12.286;2022-12-10T07:01:24;100186.69;;;-3.70;100.00
64827;BME280;51265;53.972;12.286;2022-12-10T07:03:55;100193.72;;;-3.69;100.00
64827;BME280;51265;53.972;12.286;2022-12-10T07:06:23;100192.91;;;-3.70;100.00
64827;BME280;51265;53.972;12.286;2022-12-10T07:08:50;100204.09;;;-3.73;100.00
64827;BME280;51265;53.972;12.286;2022-12-10T07:11:19;100204.06;;;-3.66;100.00
64827;BME280;51265;53.972;12.286;2022-12-10T07:13:46;100205.31;;;-3.69;100.00
64827;BME280;51265;53.972;12.286;2022-12-10T07:18:44;100211.16;;;-3.79;100.00
64827;BME280;51265;53.972;12.286;2022-12-10T07:23:54;100218.94;;;-3.64;100.00
64827;BME280;51265;53.972;12.286;2022-12-10T07:26:24;100213.63;;;-3.77;100.00
64827;BME280;51265;53.972;12.286;2022-12-10T07:28:50;100210.78;;;-3.89;100.00
64827;BME280;51265;53.972;12.286;2022-12-10T07:31:20;100217.44;;;-3.91;100.00
64827;BME280;51265;53.972;12.286;2022-12-10T07:33:50;100230.81;;;-3.78;100.00
64827;BME280;51265;53.972;12.286;2022-12-10T07:36:16;100226.09;;;-3.89;100.00
64827;BME280;51265;53.972;12.286;2022-12-10T07:38:43;100216.03;;;-4.01;100.00
64827;BME280;51265;53.972;12.286;2022-12-10T07:41:12;100226.16;;;-3.96;100.00
64827;BME280;51265;53.972;12.286;2022-12-10T07:43:40;100213.59;;;-4.09;100.00
64827;BME280;51265;53.972;12.286;2022-12-10T07:46:16;100218.34;;;-4.11;100.00
64827;BME280;51265;53.972;12.286;2022-12-10T07:48:45;100230.13;;;-4.05;100.00
64827;BME280;51265;53.972;12.286;2022-12-10T07:51:12;100231.13;;;-3.93;100.00
64827;BME280;51265;53.972;12.286;2022-12-10T07:53:39;100240.19;;;-3.87;100.00
64827;BME280;51265;53.972;12.286;2022-12-10T07:56:05;100242.06;;;-3.88;100.00
64827;BME280;51265;53.972;12.286;2022-12-10T07:58:32;100244.13;;;-3.90;100.00
64827;BME280;51265;53.972;12.286;2022-12-10T08:00:58;100248.47;;;-3.89;100.00
64827;BME280;51265;53.972;12.286;2022-12-10T08:03:24;100238.16;;;-3.92;100.00
64827;BME280;51265;53.972;12.286;2022-12-10T08:06:01;100249.31;;;-3.88;100.00
64827;BME280;51265;53.972;12.286;2022-12-10T08:08:27;100251.78;;;-3.87;100.00
64827;BME280;51265;53.972;12.286;2022-12-10T08:10:53;100250.94;;;-3.87;100.00
64827;BME280;51265;53.972;12.286;2022-12-10T08:13:20;100254.25;;;-3.85;100.00
64827;BME280;51265;53.972;12.286;2022-12-10T08:15:46;100257.56;;;-3.83;100.00
64827;BME280;51265;53.972;12.286;2022-12-10T08:18:12;100266.22;;;-3.81;100.00
64827;BME280;51265;53.972;12.286;2022-12-10T08:20:38;100259.63;;;-3.85;100.00
64827;BME280;51265;53.972;12.286;2022-12-10T08:23:04;100267.63;;;-3.65;100.00
64827;BME280;51265;53.972;12.286;2022-12-10T08:25:30;100263.69;;;-3.63;100.00
64827;BME280;51265;53.972;12.286;2022-12-10T08:27:56;100261.81;;;-3.62;100.00
64827;BME280;51265;53.972;12.286;2022-12-10T08:30:23;100269.00;;;-3.49;100.00
64827;BME280;51265;53.972;12.286;2022-12-10T08:32:49;100273.09;;;-3.40;100.00
64827;BME280;51265;53.972;12.286;2022-12-10T08:35:15;100265.22;;;-3.42;100.00
64827;BME280;51265;53.972;12.286;2022-12-10T08:37:41;100266.91;;;-3.47;100.00
64827;BME280;51265;53.972;12.286;2022-12-10T08:40:08;100271.63;;;-3.43;100.00
64827;BME280;51265;53.972;12.286;2022-12-10T08:42:46;100291.25;;;-3.29;100.00
64827;BME280;51265;53.972;12.286;2022-12-10T08:45:12;100283.19;;;-3.29;100.00
64827;BME280;51265;53.972;12.286;2022-12-10T08:47:38;100286.63;;;-3.22;100.00
64827;BME280;51265;53.972;12.286;2022-12-10T08:50:04;100286.03;;;-3.24;100.00
64827;BME280;51265;53.972;12.286;2022-12-10T08:52:31;100273.63;;;-3.25;100.00
64827;BME280;51265;53.972;12.286;2022-12-10T08:54:57;100277.72;;;-3.22;100.00
64827;BME280;51265;53.972;12.286;2022-12-10T08:57:23;100272.16;;;-3.21;100.00
64827;BME280;51265;53.972;12.286;2022-12-10T08:59:49;100276.88;;;-3.16;100.00
64827;BME280;51265;53.972;12.286;2022-12-10T09:02:15;100288.91;;;-3.19;100.00
64827;BME280;51265;53.972;12.286;2022-12-10T09:04:41;100275.50;;;-3.26;100.00
64827;BME280;51265;53.972;12.286;2022-12-10T09:07:08;100275.53;;;-3.32;100.00
64827;BME280;51265;53.972;12.286;2022-12-10T09:09:34;100285.34;;;-3.13;100.00
64827;BME280;51265;53.972;12.286;2022-12-10T09:12:00;100277.28;;;-3.13;100.00
64827;BME280;51265;53.972;12.286;2022-12-10T09:14:26;100269.66;;;-3.22;100.00
64827;BME280;51265;53.972;12.286;2022-12-10T09:16:53;100265.97;;;-3.28;100.00
64827;BME280;51265;53.972;12.286;2022-12-10T09:19:19;100256.50;;;-3.37;100.00
64827;BME280;51265;53.972;12.286;2022-12-10T09:21:45;100246.78;;;-3.38;100.00
64827;BME280;51265;53.972;12.286;2022-12-10T09:24:12;100250.84;;;-3.29;100.00
64827;BME280;51265;53.972;12.286;2022-12-10T09:26:38;100251.03;;;-3.24;100.00
64827;BME280;51265;53.972;12.286;2022-12-10T09:29:04;100247.28;;;-3.23;100.00
64827;BME280;51265;53.972;12.286;2022-12-10T09:31:31;100258.56;;;-3.08;100.00
64827;BME280;51265;53.972;12.286;2022-12-10T09:33:57;100265.03;;;-3.09;100.00
64827;BME280;51265;53.972;12.286;2022-12-10T09:36:23;100264.50;;;-2.92;100.00
64827;BME280;51265;53.972;12.286;2022-12-10T09:38:49;100266.53;;;-2.88;100.00
64827;BME280;51265;53.972;12.286;2022-12-10T09:46:52;100263.44;;;-2.91;100.00
64827;BME280;51265;53.972;12.286;2022-12-10T09:51:54;100255.25;;;-2.78;100.00
64827;BME280;51265;53.972;12.286;2022-12-10T09:56:48;100258.53;;;-2.76;100.00
64827;BME280;51265;53.972;12.286;2022-12-10T09:59:19;100252.97;;;-2.81;100.00
64827;BME280;51265;53.972;12.286;2022-12-10T10:01:50;100248.22;;;-2.79;100.00
64827;BME280;51265;53.972;12.286;2022-12-10T10:04:19;100234.09;;;-2.81;100.00
64827;BME280;51265;53.972;12.286;2022-12-10T10:06:45;100229.94;;;-2.77;100.00
64827;BME280;51265;53.972;12.286;2022-12-10T10:09:13;100237.44;;;-2.79;100.00
64827;BME280;51265;53.972;12.286;2022-12-10T10:11:40;100223.59;;;-2.89;100.00
64827;BME280;51265;53.972;12.286;2022-12-10T10:14:13;100207.72;;;-2.97;100.00
64827;BME280;51265;53.972;12.286;2022-12-10T10:16:47;100205.69;;;-3.02;100.00
64827;BME280;51265;53.972;12.286;2022-12-10T10:19:17;100221.53;;;-2.87;100.00
64827;BME280;51265;53.972;12.286;2022-12-10T10:21:50;100228.72;;;-2.81;100.00
64827;BME280;51265;53.972;12.286;2022-12-10T10:24:19;100202.78;;;-3.01;100.00
64827;BME280;51265;53.972;12.286;2022-12-10T10:26:48;100179.56;;;-3.27;100.00
64827;BME280;51265;53.972;12.286;2022-12-10T10:29:18;100174.50;;;-3.41;100.00
64827;BME280;51265;53.972;12.286;2022-12-10T10:31:45;100182.78;;;-3.43;100.00
64827;BME280;51265;53.972;12.286;2022-12-10T10:34:17;100193.50;;;-3.36;100.00
64827;BME280;51265;53.972;12.286;2022-12-10T10:36:44;100203.19;;;-3.29;100.00
64827;BME280;51265;53.972;12.286;2022-12-10T10:39:26;100206.31;;;-3.32;100.00
64827;BME280;51265;53.972;12.286;2022-12-10T10:41:54;100203.84;;;-3.33;100.00
64827;BME280;51265;53.972;12.286;2022-12-10T10:44:22;100202.22;;;-3.34;100.00
64827;BME280;51265;53.972;12.286;2022-12-10T10:46:51;100204.03;;;-3.28;100.00
64827;BME280;51265;53.972;12.286;2022-12-10T10:52:00;100215.91;;;-3.11;100.00
64827;BME280;51265;53.972;12.286;2022-12-10T10:54:40;100205.75;;;-3.09;100.00
64827;BME280;51265;53.972;12.286;2022-12-10T10:57:55;100228.41;;;-2.91;100.00
64827;BME280;51265;53.972;12.286;2022-12-10T11:00:06;100224.09;;;-2.74;100.00
64827;BME280;51265;53.972;12.286;2022-12-10T11:02:35;100203.41;;;-2.80;100.00
64827;BME280;51265;53.972;12.286;2022-12-10T11:07:41;100178.81;;;-3.09;100.00
64827;BME280;51265;53.972;12.286;2022-12-10T11:10:18;100165.22;;;-3.20;100.00
64827;BME280;51265;53.972;12.286;2022-12-10T11:12:55;100171.44;;;-3.20;100.00
64827;BME280;51265;53.972;12.286;2022-12-10T11:17:50;100199.03;;;-2.99;100.00
64827;BME280;51265;53.972;12.286;2022-12-10T11:20:19;100196.50;;;-2.94;100.00
64827;BME280;51265;53.972;12.286;2022-12-10T11:25:17;100133.69;;;-3.70;100.00
64827;BME280;51265;53.972;12.286;2022-12-10T11:30:54;100162.63;;;-3.59;100.00
64827;BME280;51265;53.972;12.286;2022-12-10T11:33:32;100176.25;;;-3.54;100.00
64827;BME280;51265;53.972;12.286;2022-12-10T11:47:57;100148.50;;;-4.31;100.00
64827;BME280;51265;53.972;12.286;2022-12-10T11:53:33;100168.16;;;-4.30;100.00
64827;BME280;51265;53.972;12.286;2022-12-10T11:56:37;100165.31;;;-4.48;100.00
64827;BME280;51265;53.972;12.286;2022-12-10T12:18:04;100252.34;;;-3.33;100.00
64827;BME280;51265;53.972;12.286;2022-12-10T12:20:36;100245.31;;;-3.34;100.00
64827;BME280;51265;53.972;12.286;2022-12-10T12:23:22;100237.41;;;-3.36;100.00
64827;BME280;51265;53.972;12.286;2022-12-10T12:25:54;100231.19;;;-3.30;100.00
64827;BME280;51265;53.972;12.286;2022-12-10T12:28:24;100240.66;;;-3.20;100.00
64827;BME280;51265;53.972;12.286;2022-12-10T12:30:59;100218.97;;;-3.32;100.00
64827;BME280;51265;53.972;12.286;2022-12-10T12:36:27;100201.97;;;-3.33;100.00
64827;BME280;51265;53.972;12.286;2022-12-10T12:41:50;100175.88;;;-3.64;100.00
64827;BME280;51265;53.972;12.286;2022-12-10T12:45:10;100169.34;;;-3.74;100.00
64827;BME280;51265;53.972;12.286;2022-12-10T12:52:52;100194.31;;;-3.29;100.00
64827;BME280;51265;53.972;12.286;2022-12-10T12:55:24;100199.59;;;-3.16;100.00
64827;BME280;51265;53.972;12.286;2022-12-10T12:58:13;100192.34;;;-3.22;100.00
64827;BME280;51265;53.972;12.286;2022-12-10T13:00:43;100184.75;;;-3.25;100.00
64827;BME280;51265;53.972;12.286;2022-12-10T13:03:32;100182.25;;;-3.27;100.00
64827;BME280;51265;53.972;12.286;2022-12-10T13:08:46;100177.59;;;-3.13;100.00
64827;BME280;51265;53.972;12.286;2022-12-10T13:14:27;100157.81;;;-3.25;100.00
64827;BME280;51265;53.972;12.286;2022-12-10T13:37:36;100148.03;;;-3.76;100.00
64827;BME280;51265;53.972;12.286;2022-12-10T13:56:49;100170.84;;;-4.30;100.00
64827;BME280;51265;53.972;12.286;2022-12-10T14:07:29;100175.84;;;-4.40;100.00
64827;BME280;51265;53.972;12.286;2022-12-10T14:09:57;100184.31;;;-4.43;100.00
64827;BME280;51265;53.972;12.286;2022-12-10T14:12:33;100187.84;;;-4.49;100.00
64827;BME280;51265;53.972;12.286;2022-12-10T14:15:24;100195.28;;;-4.45;100.00
64827;BME280;51265;53.972;12.286;2022-12-10T14:17:56;100209.31;;;-4.36;100.00
64827;BME280;51265;53.972;12.286;2022-12-10T14:20:25;100212.00;;;-4.36;100.00
64827;BME280;51265;53.972;12.286;2022-12-10T14:22:53;100222.53;;;-4.28;100.00
64827;BME280;51265;53.972;12.286;2022-12-10T14:25:45;100217.56;;;-4.31;100.00
64827;BME280;51265;53.972;12.286;2022-12-10T14:28:14;100220.88;;;-4.29;100.00
64827;BME280;51265;53.972;12.286;2022-12-10T14:30:48;100217.56;;;-4.31;100.00
64827;BME280;51265;53.972;12.286;2022-12-10T14:33:17;100238.25;;;-4.25;100.00
64827;BME280;51265;53.972;12.286;2022-12-10T14:35:48;100252.66;;;-3.99;100.00
64827;BME280;51265;53.972;12.286;2022-12-10T14:38:41;100242.13;;;-4.08;100.00
64827;BME280;51265;53.972;12.286;2022-12-10T14:41:18;100222.94;;;-4.31;100.00
64827;BME280;51265;53.972;12.286;2022-12-10T14:43:45;100230.81;;;-4.36;100.00
64827;BME280;51265;53.972;12.286;2022-12-10T14:46:16;100237.44;;;-4.32;100.00
64827;BME280;51265;53.972;12.286;2022-12-10T14:48:42;100237.03;;;-4.29;100.00
64827;BME280;51265;53.972;12.286;2022-12-10T14:51:15;100232.47;;;-4.35;100.00
64827;BME280;51265;53.972;12.286;2022-12-10T14:53:42;100224.63;;;-4.43;100.00
64827;BME280;51265;53.972;12.286;2022-12-10T14:56:11;100214.13;;;-4.65;100.00
64827;BME280;51265;53.972;12.286;2022-12-10T15:01:29;100214.78;;;-4.89;100.00
64827;BME280;51265;53.972;12.286;2022-12-10T15:03:58;100216.44;;;-4.95;100.00
64827;BME280;51265;53.972;12.286;2022-12-10T15:06:25;100219.75;;;-4.99;100.00
64827;BME280;51265;53.972;12.286;2022-12-10T15:08:54;100232.59;;;-5.02;100.00
64827;BME280;51265;53.972;12.286;2022-12-10T15:11:21;100228.03;;;-5.08;100.00
64827;BME280;51265;53.972;12.286;2022-12-10T15:13:51;100219.75;;;-5.19;100.00
64827;BME280;51265;53.972;12.286;2022-12-10T15:16:40;100216.44;;;-5.35;100.00